Flight Track Log - Related Links

Times and Time Zones

All times are in EDT time to prevent confusion due to time zone crossing. See the GJS6221 flight status page for this flight to view local times or setup timezone preferences in your user account.

Time Position Orientation Groundspeed Altitude Reporting Facility
EDT Latitude Longitude Course Direction KTS MPH feet Rate Location/Type
07:27AM 45.4894 -73.7308 207° Southwest 446 513 1,600  Level Boston Center
07:28AM 45.5353 -73.7231 North 295 339 3,600 2,450 Climbing Boston Center
07:29AM 45.5506 -73.6669 69° East 210 242 6,500 2,750 Climbing Boston Center
07:30AM 45.5325 -73.5925 109° East 157 181 9,100 2,050 Climbing Boston Center
07:31AM 45.4869 -73.5767 166° South 160 184 10,600 1,650 Climbing Boston Center
07:32AM 44.9995 -74.0718 207° Southwest  Level FlightAware Approximate
07:32AM 45.3903 -73.6458 207° Southwest 215 247 12,400  Level Boston Center
07:33AM 45.3042 -73.7089 207° Southwest 289 333 14,400 2,150 Climbing Boston Center
07:34AM 45.2350 -73.7606 208° Southwest 325 374 16,700 2,350 Climbing Boston Center
07:35AM 45.1261 -73.8169 200° South 349 402 19,100 2,000 Climbing Boston Center
07:36AM 45.0239 -73.8172 180° South 356 410 20,700 1,650 Climbing Boston Center
07:37AM 44.9197 -73.8150 179° South 370 426 22,400 1,700 Climbing Boston Center
07:38AM 44.8053 -73.8150 180° South 376 433 24,100 1,600 Climbing Boston Center
07:39AM 44.7031 -73.8128 179° South 376 433 25,600 1,250 Climbing Boston Center
07:40AM 44.5969 -73.8131 180° South 381 438 26,600 900 Climbing Boston Center
07:41AM 44.4864 -73.8136 180° South 394 453 27,400 700 Climbing Boston Center
07:42AM 44.3825 -73.8081 178° South 405 466 28,000 650 Climbing Boston Center
07:43AM 44.2725 -73.7564 161° South 410 472 28,700 750 Climbing Boston Center
07:44AM 44.1481 -73.7017 162° South 415 478 29,500 650 Climbing Boston Center
07:45AM 44.0319 -73.6558 164° South 426 490 30,000 250 Climbing Boston Center
07:46AM 43.9256 -73.6708 186° South 426 490 30,000  Level Boston Center
07:47AM 43.8086 -73.6831 184° South 426 490 30,000  Level Boston Center
07:48AM 43.6897 -73.6978 185° South 431 496 30,000  Level Boston Center
07:49AM 43.5708 -73.7094 184° South 431 496 30,000  Level Boston Center
07:50AM 43.4519 -73.7214 184° South 431 496 30,000 -50 Level Boston Center
07:51AM 43.3331 -73.7361 185° South 431 496 29,900  Descending Boston Center
07:52AM 43.2139 -73.7506 185° South 431 496 30,000  Climbing Boston Center
07:53AM 43.0972 -73.7650 185° South 431 496 29,900 -50 Descending Boston Center
07:54AM 42.9781 -73.7767 184° South 426 490 29,900 -1,500 Level Boston Center
07:55AM 42.8656 -73.7914 185° South 420 483 26,900 -3,000 Descending Boston Center
07:56AM 42.7569 -73.8031 185° South 411 473 23,900 -3,000 Descending Boston Center
07:57AM 42.6531 -73.7867 173° South 390 449 20,900 -2,450 Descending Boston Center
07:58AM 42.5450 -73.7589 169° South 372 428 19,000 -950 Descending Boston Center
07:59AM 42.4556 -73.7431 173° South 366 421 19,000  Level Boston Center
08:00AM 42.3267 -73.7150 171° South 366 421 19,000 -45 Level Boston Center
08:01AM 42.2289 -73.6906 170° South 366 421 18,900  Descending Boston Center
08:02AM 42.1267 -73.6997 184° South 366 421 19,000 50 Climbing Boston Center
08:03AM 42.0242 -73.7200 188° South 370 426 19,000  Level Boston Center
08:04AM 41.9325 -73.7267 183° South 370 426 19,000 -900 Level Boston Center
08:05AM 41.8239 -73.7411 186° South 370 426 17,200 -1,750 Descending Boston Center
08:06AM 41.7342 -73.7531 186° South 370 426 15,500 -1,800 Descending Boston Center
08:07AM 41.6297 -73.7650 185° South 359 413 13,600 -1,811 Descending Boston Center
08:08AM 41.5667 -73.7667 181° South 332 382 12,300 -1,560 Descending New York TRACON
08:09AM 41.4833 -73.7833 189° South 297 342 11,000 -1,474 Descending New York TRACON
08:10AM 41.4000 -73.7833 180° South 278 320 9,500 -1,500 Descending New York TRACON
08:11AM 41.3333 -73.7833 180° South 281 323 8,000 -1,400 Descending New York TRACON
08:12AM 41.2667 -73.7333 151° Southeast 282 325 6,700 -1,158 Descending New York TRACON
08:13AM 41.2000 -73.6667 143° Southeast 273 314 5,800 -1,000 Descending New York TRACON
08:14AM 41.1500 -73.6167 143° Southeast 266 306 4,700 -810 Descending New York TRACON
08:15AM 41.0833 -73.6167 180° South 247 284 4,100 -316 Descending New York TRACON
08:16AM 41.0167 -73.6667 210° Southwest 236 272 4,100 -158 Level New York TRACON
08:17AM 40.9833 -73.7000 217° Southwest 171 197 3,800 -476 Descending New York TRACON
08:18AM 40.9333 -73.7500 217° Southwest 175 201 3,100 -550 Descending New York TRACON
08:19AM 40.9000 -73.7833 217° Southwest 171 197 2,700 -632 Descending New York TRACON
08:20AM 40.8667 -73.8000 201° Southwest 153 176 1,900 -762 Descending New York TRACON
08:21AM 40.8333 -73.8333 217° Southwest 132 152 1,100 -714 Descending New York TRACON
08:22AM 40.8000 -73.8667 217° Southwest 133 153 400 -700 Descending New York TRACON
08:24AM 40.7772 -73.8726 180° South  Level Estimated
08:31AM 40.7772 -73.8726 180° South  Level Estimated

Login

Don't have an account? Register now (free) for customized features, flight alerts, and more!